Impacts TAF Board INFO
FOR SITUATIONAL AWARENESS. NOT TO BE USED FOR FLIGHT PLANNING PURPOSES.
IDs:

KDCA - Washington/National, VA, US

Issued at 2320 UTC 22 Jan 2018
Updated at 0023 UTC 23 Jan 2018
Potential Impact None Slight Moderate High
Time2352Z 23/01Z 23/02Z 23/03Z 23/04Z 23/05Z 23/06Z 23/07Z 23/08Z 23/09Z 23/10Z 23/11Z 23/12Z 23/13Z>>
Type OBS PRVL PRVL PRVL PRVL PRVL PRVL PRVL PRVL PRVL PRVL PRVL PRVL PRVL
VIS 10 >6 >6 >6 >6 >6 >6 3 3 2 2 2 2 2
CIG 210 200 200 200 200 200 200 25 25 8 8 8 8 8
Cover OVC OVC OVC OVC OVC OVC OVC OVC OVC OVC OVC OVC OVC OVC
FltCat VFR VFR VFR VFR VFR VFR VFR MVFR MVFR IFR IFR IFR IFR IFR
WX -- -- -- -- -- -- -- -SHRA -SHRA -SHRA BR -SHRA BR -SHRA BR -SHRA BR -SHRA BR
WDir 160 170 170 170 170 170 170 160 160 170 170 170 170 170
WSpd 7 8 8 8 8 8 8 8 8 8 8 8 8 8
WGst -- -- -- -- -- -- -- 16 16 16 16 16 16 16

Raw TAF
KDCA 222320Z 2300/2406 17008KT P6SM SCT100 OVC200
  FM230700 16008G16KT 3SM -SHRA BKN025 OVC050 WS020/20045KT
  FM230900 17008G16KT 2SM -SHRA BR BKN008 OVC015 WS020/20050KT
  FM231500 23012G24KT 6SM -SHRA BR BKN025 OVC050
  FM231800 26015G25KT P6SM SCT050
  FM240200 28008G16KT P6SM FEW250


Raw METAR
KDCA 222352Z 16007KT 10SM OVC210 14/06 A3002 RMK AO2 SLP165 T01390061 10183 20133 58002
KDCA 222252Z 17008KT 10SM OVC220 14/06 A3002 RMK AO2 SLP167 T01390056
KDCA 222152Z 19011KT 10SM FEW150 BKN250 14/06 A3002 RMK AO2 SLP167 T01440056

METAR Board
Radar Display
Forecast Discussion

FOR SITUATIONAL AWARENESS. NOT TO BE USED FOR FLIGHT PLANNING PURPOSES.